Time;durP1;ratioP1;P1;durP2;ratioP2;P2;SDS_P1;SDS_P2;PMS_P1;PMS_P2;Temp;Humidity;BMP_temperature;BMP_pressure;BME280_temperature;BME280_humidity;BME280_pressure;Samples;Min_cycle;Max_cycle;Signal;HPM_P1;HPM_P2
2021/04/06 00:02:01;;;;;;;11.53;1.30;;;;;;;0.29;77.73;100159.86;656407;218;23616;-74
2021/04/06 00:04:29;;;;;;;3.60;1.75;;;;;;;0.02;78.92;100172.81;650176;218;32506;-75
2021/04/06 00:06:57;;;;;;;3.60;1.10;;;;;;;-0.07;79.33;100168.98;635087;222;32676;-75
2021/04/06 00:09:25;;;;;;;3.33;1.50;;;;;;;-0.35;80.59;100181.06;656067;218;26248;-75
2021/04/06 00:11:53;;;;;;;4.58;1.10;;;;;;;-0.32;80.79;100192.85;633796;222;43355;-74
2021/04/06 00:14:21;;;;;;;1.80;1.20;;;;;;;-0.41;81.58;100190.78;653832;218;23954;-73
2021/04/06 00:16:49;;;;;;;2.33;0.90;;;;;;;-0.22;80.07;100184.28;650748;218;32832;-73
2021/04/06 00:19:17;;;;;;;3.13;1.27;;;;;;;-0.17;79.59;100175.47;643006;222;23741;-74
2021/04/06 00:21:45;;;;;;;5.55;1.20;;;;;;;-0.01;79.20;100172.49;650539;218;32522;-75
2021/04/06 00:24:13;;;;;;;2.22;0.88;;;;;;;0.08;78.38;100166.55;648983;218;32558;-75
2021/04/06 00:26:45;;;;;;;3.83;1.50;;;;;;;0.13;78.34;100164.56;635498;223;32908;-75
2021/04/06 00:29:13;;;;;;;4.37;1.20;;;;;;;0.11;77.48;100159.98;632072;223;32721;-75
2021/04/06 00:31:42;;;;;;;3.17;1.00;;;;;;;0.01;78.73;100160.94;642265;223;23693;-74
2021/04/06 00:34:11;;;;;;;3.27;1.12;;;;;;;0.04;77.99;100151.00;650631;218;32569;-74
2021/04/06 00:36:39;;;;;;;4.97;1.50;;;;;;;-0.02;78.48;100149.12;658814;218;23644;-75
2021/04/06 00:39:07;;;;;;;7.55;1.67;;;;;;;0.03;78.70;100146.80;647984;218;32675;-75
2021/04/06 00:41:34;;;;;;;4.40;1.10;;;;;;;0.05;78.21;100141.97;648729;218;43242;-75
2021/04/06 00:44:04;;;;;;;6.40;1.40;;;;;;;-0.10;79.35;100135.11;642769;223;23707;-74
2021/04/06 00:46:32;;;;;;;5.60;1.20;;;;;;;0.29;78.86;100130.91;636793;223;32960;-75
2021/04/06 00:49:00;;;;;;;2.37;0.90;;;;;;;0.09;78.26;100127.29;638121;219;32496;-74
2021/04/06 00:51:28;;;;;;;1.43;1.07;;;;;;;-0.12;79.35;100143.31;635714;223;26863;-74
2021/04/06 00:53:58;;;;;;;3.85;1.30;;;;;;;-0.19;79.78;100150.45;634254;223;32615;-75
2021/04/06 00:56:27;;;;;;;4.70;1.37;;;;;;;-0.23;79.58;100145.13;648196;218;43115;-75
2021/04/06 00:58:55;;;;;;;3.87;1.10;;;;;;;-0.08;79.45;100143.06;653560;218;32495;-75
2021/04/06 01:01:31;;;;;;;6.50;1.47;;;;;;;-0.25;79.23;100142.28;643955;223;23678;-74
2021/04/06 01:03:58;;;;;;;4.55;1.20;;;;;;;-0.17;79.74;100137.59;639246;223;32665;-74
2021/04/06 01:06:26;;;;;;;3.25;1.15;;;;;;;-0.26;79.40;100144.02;647524;218;32475;-74
2021/04/06 01:08:54;;;;;;;2.63;1.20;;;;;;;-0.32;79.85;100145.59;655678;218;23604;-74
2021/04/06 01:11:22;;;;;;;3.35;1.22;;;;;;;-0.24;80.45;100146.03;633202;223;32699;-74
2021/04/06 01:13:51;;;;;;;2.43;1.37;;;;;;;-0.31;80.66;100145.95;650107;221;23607;-74
2021/04/06 01:16:19;;;;;;;5.70;1.20;;;;;;;-0.28;80.34;100149.66;639687;221;32621;-75
2021/04/06 01:18:47;;;;;;;4.50;1.37;;;;;;;-0.19;80.49;100142.78;641096;216;32623;-75
2021/04/06 01:21:14;;;;;;;5.08;1.40;;;;;;;-0.21;80.52;100154.81;649680;217;32472;-75
2021/04/06 01:23:42;;;;;;;3.80;1.17;;;;;;;-0.23;81.38;100150.23;653823;218;23668;-75
2021/04/06 01:26:11;;;;;;;5.47;1.50;;;;;;;-0.13;80.70;100153.98;644202;218;32806;-74
2021/04/06 01:28:39;;;;;;;4.47;1.17;;;;;;;-0.15;80.85;100146.82;651522;218;32480;-75
2021/04/06 01:31:06;;;;;;;4.47;1.30;;;;;;;-0.27;80.53;100141.09;648639;221;24709;-75
2021/04/06 01:33:34;;;;;;;4.15;1.10;;;;;;;-0.06;80.45;100145.08;636493;222;32674;-74
2021/04/06 01:36:02;;;;;;;6.20;1.60;;;;;;;0.09;79.71;100131.95;635312;221;32672;-75
2021/04/06 01:38:30;;;;;;;5.60;1.23;;;;;;;0.07;79.70;100129.11;642397;221;23684;-74
2021/04/06 01:40:58;;;;;;;5.47;1.60;;;;;;;0.11;79.88;100129.31;648410;218;32556;-74
2021/04/06 01:43:28;;;;;;;5.30;1.20;;;;;;;0.07;79.37;100115.05;647398;218;32516;-74
2021/04/06 01:45:57;;;;;;;4.53;1.20;;;;;;;0.07;79.92;100118.87;635006;223;32860;-74
2021/04/06 01:48:25;;;;;;;3.33;1.13;;;;;;;-0.09;80.43;100119.69;640913;223;23648;-75
2021/04/06 01:50:53;;;;;;;4.60;1.60;;;;;;;-0.15;80.64;100130.21;634639;223;32828;-74
2021/04/06 01:53:21;;;;;;;5.00;1.30;;;;;;;0.03;80.26;100119.95;637634;223;32743;-74
2021/04/06 01:55:51;;;;;;;3.80;1.40;;;;;;;-0.26;80.71;100121.02;652725;218;23664;-74
2021/04/06 01:58:17;;;;;;;9.10;1.70;;;;;;;-0.32;81.49;100122.59;644492;218;32562;-75
2021/04/06 02:00:58;;;;;;;5.60;1.40;;;;;;;-0.32;82.02;100140.47;646112;217;32496;-74
2021/04/06 02:03:19;;;;;;;4.30;1.77;;;;;;;-0.44;82.44;100133.43;641787;221;23618;-75
2021/04/06 02:05:47;;;;;;;3.85;1.40;;;;;;;-0.48;83.20;100143.44;638558;221;32804;-73
2021/04/06 02:08:18;;;;;;;6.22;1.70;;;;;;;-0.49;82.80;100135.40;634053;223;32851;-74
2021/04/06 02:10:43;;;;;;;2.80;1.30;;;;;;;-0.52;83.40;100150.88;639737;223;23726;-74
2021/04/06 02:13:12;;;;;;;4.08;1.60;;;;;;;-0.54;83.42;100135.64;634051;223;32735;-74
2021/04/06 02:15:40;;;;;;;5.00;1.60;;;;;;;-0.60;83.95;100132.92;640707;218;32852;-75
2021/04/06 02:18:08;;;;;;;2.40;1.60;;;;;;;-0.70;84.80;100141.14;636508;223;23683;-74
2021/04/06 02:20:35;;;;;;;4.20;1.77;;;;;;;-0.68;84.81;100136.33;650631;218;32560;-73
2021/04/06 02:23:03;;;;;;;3.95;1.92;;;;;;;-0.64;85.34;100137.81;645514;218;32651;-74
2021/04/06 02:25:31;;;;;;;5.90;1.50;;;;;;;-0.68;85.19;100135.05;641032;223;23661;-74
2021/04/06 02:27:59;;;;;;;7.10;2.10;;;;;;;-0.62;84.70;100132.17;640956;218;32460;-74
2021/04/06 02:30:30;;;;;;;5.65;2.05;;;;;;;-0.66;85.39;100133.24;648351;218;32447;-74
2021/04/06 02:32:58;;;;;;;7.22;2.00;;;;;;;-0.60;85.15;100130.83;642131;218;43189;-74
2021/04/06 02:35:26;;;;;;;8.13;2.40;;;;;;;-0.68;85.45;100121.01;655196;218;23662;-75
2021/04/06 02:37:54;;;;;;;4.58;1.90;;;;;;;-0.65;85.85;100122.13;647704;218;32494;-74
2021/04/06 02:40:23;;;;;;;7.00;2.25;;;;;;;-0.72;85.91;100133.53;647418;218;32868;-75
2021/04/06 02:42:50;;;;;;;6.03;2.00;;;;;;;-0.74;86.69;100134.06;634551;222;32688;-74
2021/04/06 02:45:19;;;;;;;3.77;1.83;;;;;;;-0.76;87.03;100140.15;654319;218;23654;-75
2021/04/06 02:47:47;;;;;;;5.70;1.80;;;;;;;-0.75;86.73;100143.08;649714;218;32459;-75
2021/04/06 02:50:14;;;;;;;6.55;2.10;;;;;;;-0.77;87.23;100138.05;650980;218;32758;-75
2021/04/06 02:52:42;;;;;;;3.50;1.97;;;;;;;-0.78;86.70;100123.62;647102;221;23593;-74
2021/04/06 02:55:10;;;;;;;6.05;2.27;;;;;;;-0.79;87.29;100139.86;647019;219;32591;-74
2021/04/06 02:57:41;;;;;;;6.92;2.40;;;;;;;-0.78;87.55;100142.78;653590;218;32547;-74
2021/04/06 03:00:10;;;;;;;5.63;2.27;;;;;;;-0.82;87.88;100137.91;643623;222;23641;-74
2021/04/06 03:02:41;;;;;;;4.58;1.52;;;;;;;-0.77;87.36;100139.32;651517;218;32516;-74
2021/04/06 03:05:10;;;;;;;6.58;1.90;;;;;;;-0.81;87.86;100127.62;634997;222;32655;-74
2021/04/06 03:07:45;;;;;;;5.73;2.00;;;;;;;-0.78;87.28;100143.23;652935;219;23652;-74
2021/04/06 03:10:19;;;;;;;5.40;2.20;;;;;;;-0.75;87.57;100139.25;647211;219;32581;-75
2021/04/06 03:12:47;;;;;;;9.80;2.33;;;;;;;-0.78;87.66;100134.30;645086;218;32825;-74
2021/04/06 03:15:20;;;;;;;5.80;2.67;;;;;;;-0.82;87.22;100140.46;644935;218;32474;-74
2021/04/06 03:17:48;;;;;;;5.80;2.20;;;;;;;-0.83;88.00;100138.81;639457;222;23704;-75
2021/04/06 03:20:16;;;;;;;5.83;2.15;;;;;;;-0.87;87.99;100131.73;646207;218;32544;-74
2021/04/06 03:22:44;;;;;;;9.28;2.70;;;;;;;-0.83;87.93;100128.15;640517;219;32529;-74
2021/04/06 03:25:13;;;;;;;5.60;2.10;;;;;;;-0.91;87.96;100131.06;652891;218;23686;-74
2021/04/06 03:27:43;;;;;;;8.50;2.50;;;;;;;-0.91;88.16;100129.78;642434;218;32514;-74
2021/04/06 03:30:12;;;;;;;7.78;2.20;;;;;;;-0.82;87.74;100127.70;643239;218;32485;-74
2021/04/06 03:32:40;;;;;;;7.10;2.10;;;;;;;-0.89;87.58;100124.60;644966;222;23864;-74
2021/04/06 03:35:09;;;;;;;9.98;2.55;;;;;;;-0.88;87.61;100126.25;647262;219;32761;-74
2021/04/06 03:37:37;;;;;;;6.80;2.13;;;;;;;-0.90;87.76;100130.16;649959;220;23650;-74
2021/04/06 03:40:06;;;;;;;5.60;2.08;;;;;;;-0.92;87.81;100125.58;644092;220;32554;-74
2021/04/06 03:42:34;;;;;;;6.60;2.10;;;;;;;-0.96;87.91;100127.92;641880;220;32490;-74
2021/04/06 03:45:07;;;;;;;2.70;2.17;;;;;;;-1.02;88.65;100125.64;641990;222;23670;-74
2021/04/06 03:47:45;;;;;;;8.48;2.72;;;;;;;-0.97;88.72;100124.99;645218;217;32515;-74
2021/04/06 03:50:13;;;;;;;4.67;2.12;;;;;;;-0.97;88.64;100116.52;640196;221;32685;-74
2021/04/06 03:53:00;;;;;;;8.10;2.35;;;;;;;-0.93;88.03;100114.17;638633;223;32850;-75
2021/04/06 03:55:28;;;;;;;5.23;1.90;;;;;;;-1.01;88.61;100118.36;652029;218;23609;-74
2021/04/06 03:58:04;;;;;;;6.28;1.80;;;;;;;-0.96;87.81;100126.64;639215;221;32679;-74
2021/04/06 04:00:31;;;;;;;6.47;2.50;;;;;;;-0.83;87.64;100120.48;635024;223;32679;-75
2021/04/06 04:03:00;;;;;;;10.03;3.70;;;;;;;-0.83;87.92;100114.11;640556;221;23703;-75
2021/04/06 04:05:28;;;;;;;8.15;2.33;;;;;;;-0.83;87.64;100115.84;637553;221;32624;-75
2021/04/06 04:07:56;;;;;;;6.30;2.20;;;;;;;-0.65;86.99;100117.02;636318;223;32619;-75
2021/04/06 04:10:25;;;;;;;3.20;2.10;;;;;;;-0.67;87.11;100112.89;651636;218;23602;-75
2021/04/06 04:12:52;;;;;;;9.85;2.70;;;;;;;-0.56;86.45;100105.95;646355;218;32481;-75
2021/04/06 04:15:20;;;;;;;12.33;2.45;;;;;;;-0.31;86.16;100106.36;646864;218;32484;-75
2021/04/06 04:17:49;;;;;;;6.07;2.57;;;;;;;-0.39;85.54;100109.77;650938;219;23663;-75
2021/04/06 04:20:18;;;;;;;6.72;2.90;;;;;;;-0.33;84.97;100112.00;639559;222;32528;-75
2021/04/06 04:22:46;;;;;;;5.25;2.10;;;;;;;-0.09;84.83;100105.63;639720;222;32456;-76
2021/04/06 04:25:14;;;;;;;7.20;2.67;;;;;;;-0.39;84.80;100104.21;640146;223;24821;-75
2021/04/06 04:27:42;;;;;;;6.97;2.40;;;;;;;-0.23;84.76;100102.14;633223;223;32646;-75
2021/04/06 04:30:11;;;;;;;7.47;2.15;;;;;;;-0.33;84.54;100100.50;629473;223;33024;-76
2021/04/06 04:32:39;;;;;;;9.00;2.70;;;;;;;-0.40;85.02;100100.02;640732;223;24768;-76
2021/04/06 04:35:07;;;;;;;8.25;2.42;;;;;;;-0.30;84.35;100097.78;631953;223;32623;-75
2021/04/06 04:37:35;;;;;;;10.33;3.30;;;;;;;-0.34;84.74;100097.58;654027;218;23676;-75
2021/04/06 04:40:04;;;;;;;7.25;2.70;;;;;;;-0.45;85.20;100094.29;652745;218;32531;-76
2021/04/06 04:42:32;;;;;;;4.70;2.43;;;;;;;-0.51;85.52;100092.52;644151;223;23683;-76
2021/04/06 04:44:59;;;;;;;11.93;2.90;;;;;;;-0.45;85.66;100101.13;644946;219;32530;-76
2021/04/06 04:47:27;;;;;;;9.17;2.80;;;;;;;-0.54;85.78;100110.10;653304;219;24683;-76
2021/04/06 04:49:55;;;;;;;9.55;2.85;;;;;;;-0.65;85.28;100111.09;635606;223;32657;-75
2021/04/06 04:52:23;;;;;;;5.33;3.00;;;;;;;-0.87;86.21;100116.41;641650;223;23715;-75
2021/04/06 04:54:51;;;;;;;8.43;3.20;;;;;;;-0.88;87.14;100117.31;639529;221;32678;-75
2021/04/06 04:57:19;;;;;;;9.68;3.05;;;;;;;-0.98;88.21;100130.17;636679;222;32971;-76
2021/04/06 04:59:47;;;;;;;6.63;3.27;;;;;;;-1.06;87.98;100125.42;653826;218;23649;-78
2021/04/06 05:02:14;;;;;;;10.68;3.45;;;;;;;-1.04;88.30;100126.17;632108;222;32918;-75
2021/04/06 05:04:43;;;;;;;13.05;3.10;;;;;;;-0.95;88.28;100127.47;633363;223;32776;-74
2021/04/06 05:07:10;;;;;;;11.53;3.77;;;;;;;-1.02;88.35;100133.75;647162;218;26827;-75
2021/04/06 05:09:38;;;;;;;8.13;3.60;;;;;;;-1.04;89.05;100127.90;635003;223;32687;-76
2021/04/06 05:12:07;;;;;;;9.90;3.45;;;;;;;-1.00;88.70;100119.19;638359;223;34629;-76
2021/04/06 05:14:35;;;;;;;8.37;2.13;;;;;;;-1.04;88.47;100129.17;637441;221;23713;-75
2021/04/06 05:17:03;;;;;;;7.83;2.90;;;;;;;-0.97;88.33;100129.27;637569;221;32677;-75
2021/04/06 05:19:31;;;;;;;10.53;3.10;;;;;;;-0.94;88.61;100123.56;647464;218;32849;-75
2021/04/06 05:21:59;;;;;;;11.60;2.70;;;;;;;-0.92;88.12;100128.59;652475;220;23912;-75
2021/04/06 05:24:26;;;;;;;7.92;2.70;;;;;;;-0.84;87.96;100129.50;649967;218;32499;-75
2021/04/06 05:26:54;;;;;;;10.97;2.23;;;;;;;-0.87;88.48;100126.62;639869;223;23669;-75
2021/04/06 05:29:22;;;;;;;6.17;2.27;;;;;;;-0.82;88.33;100129.80;635660;223;32626;-76
2021/04/06 05:31:50;;;;;;;8.33;2.42;;;;;;;-0.73;88.38;100128.05;634275;223;32739;-75
2021/04/06 05:34:18;;;;;;;7.93;2.30;;;;;;;-0.88;88.41;100129.25;639666;223;23672;-75
2021/04/06 05:36:46;;;;;;;10.00;3.20;;;;;;;-0.76;87.65;100131.21;634852;223;33009;-75
2021/04/06 05:39:13;;;;;;;6.83;2.30;;;;;;;-0.64;87.43;100126.33;635162;222;32189;-75
2021/04/06 05:41:43;;;;;;;4.87;2.13;;;;;;;-0.56;86.82;100124.69;641480;222;23865;-75
2021/04/06 05:44:11;;;;;;;8.20;2.62;;;;;;;-0.45;86.98;100114.73;653402;218;32674;-75
2021/04/06 05:46:39;;;;;;;7.67;2.30;;;;;;;-0.57;86.86;100115.80;652497;218;32467;-76
2021/04/06 05:49:08;;;;;;;9.23;2.17;;;;;;;-0.64;86.83;100122.50;658068;218;26855;-74
2021/04/06 05:51:38;;;;;;;20.75;7.95;;;;;;;-0.57;86.85;100126.01;651263;218;32466;-75
2021/04/06 05:54:07;;;;;;;22.15;10.05;;;;;;;-0.34;86.27;100125.23;647810;218;32683;-75
2021/04/06 05:56:34;;;;;;;6.73;3.23;;;;;;;-0.27;85.78;100120.65;651797;218;23671;-75
2021/04/06 05:59:03;;;;;;;8.25;3.08;;;;;;;0.30;84.59;100122.33;637059;223;32673;-76
2021/04/06 06:01:31;;;;;;;10.93;3.52;;;;;;;0.46;83.15;100110.81;634610;222;32824;-75
2021/04/06 06:03:59;;;;;;;8.47;3.40;;;;;;;0.36;82.74;100105.81;640121;219;34464;-75
2021/04/06 06:06:27;;;;;;;6.20;2.87;;;;;;;0.73;82.74;100106.73;646359;218;24755;-76
2021/04/06 06:08:57;;;;;;;7.92;2.40;;;;;;;0.95;81.72;100108.89;643395;221;32423;-76
2021/04/06 06:11:22;;;;;;;8.23;2.57;;;;;;;1.00;80.83;100094.13;642409;222;23680;-75
2021/04/06 06:13:50;;;;;;;7.75;2.55;;;;;;;1.31;80.71;100094.45;632896;223;32614;-75
2021/04/06 06:16:20;;;;;;;5.50;2.20;;;;;;;1.06;81.43;100099.33;643236;223;24926;-75
2021/04/06 06:18:56;;;;;;;6.97;2.60;;;;;;;1.37;80.48;100103.50;637455;222;32655;-76
2021/04/06 06:21:24;;;;;;;6.63;2.37;;;;;;;1.36;79.35;100099.30;655207;218;23654;-75
2021/04/06 06:23:52;;;;;;;4.67;2.10;;;;;;;1.68;78.50;100104.63;635813;222;32687;-75
2021/04/06 06:26:20;;;;;;;6.20;2.63;;;;;;;1.61;79.95;100102.53;641453;223;23676;-75
2021/04/06 06:29:10;;;;;;;7.75;2.30;;;;;;;1.61;79.94;100100.79;635473;223;32735;-75
2021/04/06 06:31:43;;;;;;;4.63;2.10;;;;;;;1.58;79.47;100100.16;637160;223;23674;-75
2021/04/06 06:34:34;;;;;;;8.53;2.70;;;;;;;1.87;79.29;100100.52;637455;223;32743;-75
2021/04/06 06:37:07;;;;;;;9.45;3.47;;;;;;;1.40;79.61;100095.63;628249;223;32626;-75
2021/04/06 06:39:35;;;;;;;13.08;6.28;;;;;;;1.98;78.37;100101.16;631533;223;32679;-75
2021/04/06 06:42:02;;;;;;;11.03;2.83;;;;;;;1.32;79.26;100101.22;642095;223;26998;-75
2021/04/06 06:44:31;;;;;;;14.77;10.30;;;;;;;1.18;80.45;100105.04;641336;223;25848;-75
2021/04/06 06:47:11;;;;;;;14.13;7.75;;;;;;;0.98;80.44;100111.73;642302;218;32916;-75
2021/04/06 06:49:40;;;;;;;12.90;8.70;;;;;;;0.97;82.09;100121.16;647470;219;23644;-75
2021/04/06 06:52:27;;;;;;;15.48;7.25;;;;;;;1.29;81.50;100115.95;635590;223;32718;-75
2021/04/06 06:54:56;;;;;;;9.70;3.10;;;;;;;1.64;79.72;100107.47;642249;223;23670;-75
2021/04/06 06:57:27;;;;;;;9.38;3.22;;;;;;;2.07;78.24;100095.45;651319;218;32798;-75
2021/04/06 06:59:55;;;;;;;10.20;2.47;;;;;;;2.06;77.97;100095.08;654004;218;23672;-75
2021/04/06 07:02:24;;;;;;;6.67;2.13;;;;;;;1.73;78.91;100102.63;641510;222;24821;-75
2021/04/06 07:04:52;;;;;;;12.65;2.90;;;;;;;1.60;79.20;100101.70;648981;219;32586;-76
2021/04/06 07:07:20;;;;;;;5.80;2.60;;;;;;;1.22;80.29;100110.34;652126;219;25827;-75
2021/04/06 07:09:48;;;;;;;10.43;2.45;;;;;;;1.34;79.90;100108.81;644011;219;32559;-75
2021/04/06 07:12:16;;;;;;;6.80;4.40;;;;;;;1.32;80.93;100119.16;637727;222;23703;-75
2021/04/06 07:14:44;;;;;;;6.30;2.00;;;;;;;1.75;80.04;100118.73;655780;219;24780;-75
2021/04/06 07:17:11;;;;;;;5.67;2.30;;;;;;;1.95;79.18;100111.12;636754;221;32760;-75
2021/04/06 07:19:39;;;;;;;11.87;2.67;;;;;;;1.92;78.20;100109.20;654820;218;23667;-75
2021/04/06 07:22:07;;;;;;;7.77;2.50;;;;;;;2.07;78.22;100106.52;642152;221;24813;-76
2021/04/06 07:24:35;;;;;;;5.42;2.25;;;;;;;1.95;77.98;100093.63;647161;218;32520;-76
2021/04/06 07:27:06;;;;;;;5.70;2.40;;;;;;;1.73;78.82;100098.78;646436;222;23644;-75
2021/04/06 07:29:34;;;;;;;6.27;2.40;;;;;;;1.80;78.58;100092.81;649130;221;24812;-75
2021/04/06 07:32:02;;;;;;;11.53;2.73;;;;;;;1.89;78.57;100087.60;648776;221;24793;-76
2021/04/06 07:34:30;;;;;;;9.90;2.80;;;;;;;1.87;78.89;100096.67;637180;222;32709;-75
2021/04/06 07:37:03;;;;;;;7.50;2.60;;;;;;;1.81;78.59;100096.20;644714;218;23644;-75
2021/04/06 07:39:28;;;;;;;9.30;2.83;;;;;;;1.68;79.60;100102.52;658499;218;24892;-76
2021/04/06 07:41:56;;;;;;;8.73;2.97;;;;;;;1.86;79.49;100113.43;656242;218;24761;-76
2021/04/06 07:44:25;;;;;;;4.87;2.00;;;;;;;1.70;79.75;100109.23;650449;218;24769;-75
2021/04/06 07:46:52;;;;;;;5.40;2.57;;;;;;;1.90;79.44;100116.99;654681;218;24761;-75
2021/04/06 07:49:41;;;;;;;4.63;2.10;;;;;;;1.82;79.56;100119.64;653212;218;24762;-75
2021/04/06 07:52:15;;;;;;;4.43;2.10;;;;;;;1.57;79.46;100112.14;657474;218;24759;-76
2021/04/06 07:54:45;;;;;;;5.80;2.20;;;;;;;2.04;79.46;100117.44;647485;221;25900;-75
2021/04/06 07:57:13;;;;;;;7.70;2.70;;;;;;;2.03;78.75;100105.53;639862;222;24829;-75
2021/04/06 07:59:44;;;;;;;8.30;2.57;;;;;;;1.93;78.81;100109.56;643116;223;24872;-75
2021/04/06 08:02:21;;;;;;;6.40;2.10;;;;;;;2.03;78.93;100108.10;653109;218;24763;-75
2021/04/06 08:04:52;;;;;;;8.57;2.80;;;;;;;2.00;78.84;100123.22;656336;218;24791;-76
2021/04/06 08:07:25;;;;;;;4.63;2.13;;;;;;;2.33;78.62;100122.89;649189;221;24738;-76
2021/04/06 08:09:53;;;;;;;10.23;2.73;;;;;;;2.60;78.56;100119.52;637310;221;24819;-76
2021/04/06 08:12:21;;;;;;;5.70;2.10;;;;;;;2.30;77.38;100114.56;642343;223;27962;-75
2021/04/06 08:14:49;;;;;;;4.23;2.57;;;;;;;2.33;78.75;100116.47;643238;222;24810;-75
2021/04/06 08:17:28;;;;;;;6.30;2.60;;;;;;;2.07;78.51;100110.84;640421;223;24809;-75
2021/04/06 08:19:55;;;;;;;8.47;2.93;;;;;;;2.35;78.07;100113.34;651095;218;24760;-75
2021/04/06 08:22:23;;;;;;;7.07;2.90;;;;;;;2.68;78.29;100114.73;639054;223;24816;-75
2021/04/06 08:24:51;;;;;;;14.30;3.20;;;;;;;2.52;77.70;100111.47;650518;219;24784;-75
2021/04/06 08:27:33;;;;;;;5.50;2.20;;;;;;;2.76;77.60;100110.38;643409;222;24806;-75
2021/04/06 08:30:24;;;;;;;5.20;2.73;;;;;;;2.89;77.74;100107.39;655827;217;24807;-75
2021/04/06 08:33:16;;;;;;;13.15;2.80;;;;;;;2.68;76.82;100091.63;635012;222;32707;-75
2021/04/06 08:36:03;;;;;;;7.63;2.60;;;;;;;2.52;77.62;100101.20;656161;218;24765;-75
2021/04/06 08:38:42;;;;;;;8.20;2.43;;;;;;;2.66;77.83;100107.10;651226;219;24766;-75
2021/04/06 08:41:12;;;;;;;7.93;2.40;;;;;;;2.35;78.08;100117.20;653131;219;27306;-75
2021/04/06 08:43:38;;;;;;;10.10;3.08;;;;;;;2.60;77.20;100110.08;647732;219;32486;-75
2021/04/06 08:46:06;;;;;;;7.70;2.80;;;;;;;2.37;78.07;100104.27;643372;223;23675;-75
2021/04/06 08:48:44;;;;;;;8.73;2.70;;;;;;;2.44;77.72;100103.44;640444;223;24885;-75
2021/04/06 08:51:19;;;;;;;6.47;2.53;;;;;;;2.61;77.89;100110.89;651094;218;24770;-75
2021/04/06 08:53:47;;;;;;;5.20;2.07;;;;;;;2.77;77.66;100105.61;637112;222;24823;-76
2021/04/06 08:56:15;;;;;;;5.83;2.50;;;;;;;3.07;77.32;100104.91;651310;218;24765;-75
2021/04/06 08:58:43;;;;;;;6.37;2.10;;;;;;;3.15;77.04;100106.98;653035;219;24776;-75
2021/04/06 09:01:11;;;;;;;5.23;2.60;;;;;;;3.04;76.88;100104.29;652239;219;24736;-76
2021/04/06 09:03:39;;;;;;;8.17;2.60;;;;;;;3.50;76.79;100107.20;653294;219;24765;-75
2021/04/06 09:06:08;;;;;;;5.00;2.43;;;;;;;3.34;76.92;100106.13;652580;219;24752;-75
2021/04/06 09:08:47;;;;;;;5.07;3.00;;;;;;;3.16;77.00;100107.34;652860;219;24767;-75
2021/04/06 09:11:15;;;;;;;13.37;2.90;;;;;;;3.28;76.55;100103.97;636474;221;24828;-76
2021/04/06 09:13:44;;;;;;;5.43;1.83;;;;;;;3.57;76.67;100105.42;638859;223;24886;-76
2021/04/06 09:16:12;;;;;;;11.30;2.70;;;;;;;3.61;75.70;100103.45;651470;218;24813;-75
2021/04/06 09:18:39;;;;;;;7.85;2.35;;;;;;;3.94;75.68;100093.07;644916;220;32510;-75
2021/04/06 09:21:07;;;;;;;7.13;2.70;;;;;;;4.07;74.75;100090.83;652306;220;23657;-76
2021/04/06 09:23:36;;;;;;;6.00;2.63;;;;;;;3.87;75.18;100090.12;653969;217;24730;-76
2021/04/06 09:26:05;;;;;;;5.00;2.10;;;;;;;3.68;74.75;100091.84;650141;218;25976;-75
2021/04/06 09:28:33;;;;;;;5.37;2.50;;;;;;;3.98;74.83;100090.67;644000;218;32556;-75
2021/04/06 09:31:01;;;;;;;5.67;2.03;;;;;;;3.54;74.40;100091.95;647926;218;23696;-75
2021/04/06 09:33:29;;;;;;;4.03;2.07;;;;;;;3.43;74.30;100087.99;649834;217;24776;-75
2021/04/06 09:35:56;;;;;;;3.77;2.10;;;;;;;3.74;75.34;100093.16;643132;223;24800;-75
2021/04/06 09:38:25;;;;;;;4.20;2.30;;;;;;;3.74;73.97;100084.16;644093;223;24796;-76
2021/04/06 09:40:54;;;;;;;6.27;2.40;;;;;;;4.02;74.45;100085.66;650863;217;24805;-76
2021/04/06 09:43:21;;;;;;;6.87;2.57;;;;;;;3.90;74.46;100086.04;643056;222;24798;-75
2021/04/06 09:45:50;;;;;;;9.70;2.30;;;;;;;3.63;75.10;100078.92;646551;221;24561;-75
2021/04/06 09:48:18;;;;;;;4.27;2.20;;;;;;;3.49;74.89;100077.28;648443;218;24808;-75
2021/04/06 09:50:56;;;;;;;7.33;2.02;;;;;;;3.54;75.42;100072.67;637714;223;32746;-76
2021/04/06 09:53:24;;;;;;;4.97;2.47;;;;;;;4.09;74.66;100075.31;651675;219;23652;-76
2021/04/06 09:55:52;;;;;;;5.13;2.20;;;;;;;4.14;73.56;100061.19;636928;222;24610;-76
2021/04/06 09:58:20;;;;;;;8.23;1.60;;;;;;;4.20;72.19;100052.66;644576;221;28007;-76
2021/04/06 10:00:48;;;;;;;8.67;2.37;;;;;;;4.26;72.21;100049.67;640406;220;24792;-76
2021/04/06 10:03:17;;;;;;;6.00;2.63;;;;;;;4.93;71.85;100044.80;639833;222;25835;-76
2021/04/06 10:05:44;;;;;;;4.43;2.33;;;;;;;4.37;72.33;100038.15;637445;223;27314;-76
2021/04/06 10:08:11;;;;;;;4.60;2.10;;;;;;;4.60;71.85;100037.30;643562;222;24744;-77
2021/04/06 10:10:46;;;;;;;3.43;2.00;;;;;;;4.04;71.06;100026.72;637818;223;24833;-76
2021/04/06 10:13:14;;;;;;;8.23;1.97;;;;;;;3.72;72.74;100029.45;654659;218;26922;-75
2021/04/06 10:15:41;;;;;;;5.40;2.27;;;;;;;3.77;72.48;100026.91;650821;219;24745;-76
2021/04/06 10:18:10;;;;;;;3.60;1.90;;;;;;;4.13;72.33;100024.80;653304;218;25084;-76
2021/04/06 10:20:39;;;;;;;5.50;2.13;;;;;;;4.56;71.21;100020.43;641465;223;24798;-75
2021/04/06 10:23:07;;;;;;;5.00;1.90;;;;;;;4.35;70.60;100007.34;655350;219;24816;-74
2021/04/06 10:25:35;;;;;;;5.57;2.50;;;;;;;4.87;69.66;100000.14;644929;222;24601;-77
2021/04/06 10:28:03;;;;;;;7.70;2.63;;;;;;;5.40;68.41;99990.12;643193;221;24814;-77
2021/04/06 10:30:34;;;;;;;8.83;2.50;;;;;;;5.53;68.76;99979.22;639978;223;26123;-76
2021/04/06 10:33:05;;;;;;;4.17;2.10;;;;;;;5.58;66.45;99969.35;635571;222;32749;-77
2021/04/06 10:35:33;;;;;;;6.17;2.33;;;;;;;5.91;65.74;99961.59;640902;223;24810;-76
2021/04/06 10:38:01;;;;;;;5.83;2.70;;;;;;;6.87;66.79;99955.48;653863;218;32559;-76
2021/04/06 10:40:31;;;;;;;4.10;2.03;;;;;;;7.17;65.49;99948.22;640508;223;23669;-75
2021/04/06 10:42:58;;;;;;;7.23;3.17;;;;;;;6.93;65.40;99938.67;641217;222;24815;-75
2021/04/06 10:45:26;;;;;;;4.37;2.07;;;;;;;5.98;64.87;99935.28;639242;223;24778;-75
2021/04/06 10:47:54;;;;;;;5.70;2.63;;;;;;;5.53;66.00;99927.16;642829;223;24818;-77
2021/04/06 10:50:31;;;;;;;7.33;3.20;;;;;;;5.87;66.69;99922.73;649046;218;24757;-75
2021/04/06 10:52:59;;;;;;;3.13;2.40;;;;;;;5.64;66.36;99918.59;647894;219;24709;-75
2021/04/06 10:55:34;;;;;;;6.03;1.93;;;;;;;5.37;66.07;99916.41;645484;217;24801;-75
2021/04/06 10:58:02;;;;;;;7.07;1.70;;;;;;;5.17;66.45;99914.53;650188;220;24983;-77
2021/04/06 11:00:31;;;;;;;5.63;1.87;;;;;;;5.63;67.39;99907.89;631117;225;24884;-77
2021/04/06 11:03:09;;;;;;;3.87;2.10;;;;;;;5.86;65.91;99903.02;636315;222;25442;-77
2021/04/06 11:05:39;;;;;;;7.60;2.40;;;;;;;5.81;65.14;99899.19;627376;222;32870;-77
2021/04/06 11:08:19;;;;;;;4.90;1.97;;;;;;;6.01;65.51;99896.31;656701;218;24768;-79
2021/04/06 11:10:47;;;;;;;3.80;2.23;;;;;;;6.16;65.43;99892.48;653841;217;24766;-76
2021/04/06 11:13:15;;;;;;;4.10;1.70;;;;;;;6.43;64.43;99883.77;641182;223;24818;-76
2021/04/06 11:15:43;;;;;;;5.50;2.10;;;;;;;6.39;64.59;99872.06;638348;223;24807;-76
2021/04/06 11:18:11;;;;;;;4.13;1.83;;;;;;;6.09;65.42;99881.04;652367;218;24860;-76
2021/04/06 11:20:39;;;;;;;2.73;1.50;;;;;;;5.42;65.86;99873.48;650924;218;29412;-74
2021/04/06 11:23:07;;;;;;;7.00;1.73;;;;;;;5.12;67.88;99881.39;649449;218;24781;-77
2021/04/06 11:25:35;;;;;;;5.90;2.67;;;;;;;5.16;68.57;99885.36;651542;218;24758;-76
2021/04/06 11:28:04;;;;;;;6.37;2.27;;;;;;;5.29;67.60;99875.73;654486;218;24745;-76
2021/04/06 11:30:33;;;;;;;11.50;2.10;;;;;;;5.50;64.98;99861.64;657248;218;24795;-76
2021/04/06 11:33:02;;;;;;;3.73;1.73;;;;;;;5.80;64.09;99844.66;640597;218;24782;-76
2021/04/06 11:35:31;;;;;;;3.90;1.77;;;;;;;6.41;63.97;99846.92;644532;218;25818;-76
2021/04/06 11:37:59;;;;;;;1.97;1.77;;;;;;;6.20;62.13;99837.91;650988;218;24835;-76
2021/04/06 11:40:26;;;;;;;1.60;1.40;;;;;;;6.23;60.25;99814.89;647275;222;24728;-76